sensor_id;sensor_type;location;lat;lon;timestamp;P1;durP1;ratioP1;P2;durP2;ratioP2
8881;SDS011;4477;48.736;9.176;2022-09-27T00:00:33;1.77;;;1.67;;
8881;SDS011;4477;48.736;9.176;2022-09-27T00:03:00;3.47;;;1.70;;
8881;SDS011;4477;48.736;9.176;2022-09-27T00:05:27;1.60;;;1.50;;
8881;SDS011;4477;48.736;9.176;2022-09-27T00:07:55;2.87;;;1.70;;
8881;SDS011;4477;48.736;9.176;2022-09-27T00:10:22;3.00;;;1.60;;
8881;SDS011;4477;48.736;9.176;2022-09-27T00:12:50;3.20;;;1.53;;
8881;SDS011;4477;48.736;9.176;2022-09-27T00:15:18;3.83;;;1.77;;
8881;SDS011;4477;48.736;9.176;2022-09-27T00:17:45;1.97;;;1.40;;
8881;SDS011;4477;48.736;9.176;2022-09-27T00:20:16;3.90;;;1.77;;
8881;SDS011;4477;48.736;9.176;2022-09-27T00:22:44;1.90;;;1.70;;
8881;SDS011;4477;48.736;9.176;2022-09-27T00:25:12;1.80;;;1.60;;
8881;SDS011;4477;48.736;9.176;2022-09-27T00:27:39;1.70;;;1.50;;
8881;SDS011;4477;48.736;9.176;2022-09-27T00:30:08;1.90;;;1.30;;
8881;SDS011;4477;48.736;9.176;2022-09-27T00:32:37;1.40;;;1.30;;
8881;SDS011;4477;48.736;9.176;2022-09-27T00:35:04;1.70;;;1.60;;
8881;SDS011;4477;48.736;9.176;2022-09-27T00:37:32;2.33;;;1.50;;
8881;SDS011;4477;48.736;9.176;2022-09-27T00:39:59;2.07;;;1.70;;
8881;SDS011;4477;48.736;9.176;2022-09-27T00:42:26;1.87;;;1.57;;
8881;SDS011;4477;48.736;9.176;2022-09-27T00:45:01;1.60;;;1.50;;
8881;SDS011;4477;48.736;9.176;2022-09-27T00:47:35;2.07;;;1.50;;
8881;SDS011;4477;48.736;9.176;2022-09-27T00:50:09;1.70;;;1.60;;
8881;SDS011;4477;48.736;9.176;2022-09-27T00:52:45;1.97;;;1.27;;
8881;SDS011;4477;48.736;9.176;2022-09-27T00:55:20;3.27;;;1.60;;
8881;SDS011;4477;48.736;9.176;2022-09-27T00:57:50;1.80;;;1.40;;
8881;SDS011;4477;48.736;9.176;2022-09-27T01:00:18;2.43;;;1.33;;
8881;SDS011;4477;48.736;9.176;2022-09-27T01:02:49;1.53;;;1.43;;
8881;SDS011;4477;48.736;9.176;2022-09-27T01:05:19;3.10;;;1.80;;
8881;SDS011;4477;48.736;9.176;2022-09-27T01:07:53;1.83;;;1.20;;
8881;SDS011;4477;48.736;9.176;2022-09-27T01:10:24;2.77;;;1.40;;
8881;SDS011;4477;48.736;9.176;2022-09-27T01:12:59;1.70;;;1.43;;
8881;SDS011;4477;48.736;9.176;2022-09-27T01:15:33;4.83;;;1.50;;
8881;SDS011;4477;48.736;9.176;2022-09-27T01:18:22;1.53;;;1.30;;
8881;SDS011;4477;48.736;9.176;2022-09-27T01:21:08;2.87;;;1.37;;
8881;SDS011;4477;48.736;9.176;2022-09-27T01:24:05;2.40;;;1.60;;
8881;SDS011;4477;48.736;9.176;2022-09-27T01:29:51;2.37;;;1.60;;
8881;SDS011;4477;48.736;9.176;2022-09-27T01:32:42;1.93;;;1.40;;
8881;SDS011;4477;48.736;9.176;2022-09-27T01:35:16;2.10;;;1.50;;
8881;SDS011;4477;48.736;9.176;2022-09-27T01:37:52;2.83;;;1.60;;
8881;SDS011;4477;48.736;9.176;2022-09-27T01:40:28;2.50;;;1.40;;
8881;SDS011;4477;48.736;9.176;2022-09-27T01:43:03;2.33;;;1.43;;
8881;SDS011;4477;48.736;9.176;2022-09-27T01:45:35;1.60;;;1.50;;
8881;SDS011;4477;48.736;9.176;2022-09-27T01:48:09;2.10;;;1.40;;
8881;SDS011;4477;48.736;9.176;2022-09-27T01:50:41;1.63;;;1.30;;
8881;SDS011;4477;48.736;9.176;2022-09-27T01:53:11;1.87;;;1.23;;
8881;SDS011;4477;48.736;9.176;2022-09-27T01:55:43;2.33;;;1.47;;
8881;SDS011;4477;48.736;9.176;2022-09-27T01:58:14;1.80;;;1.50;;
8881;SDS011;4477;48.736;9.176;2022-09-27T02:00:46;1.60;;;1.40;;
8881;SDS011;4477;48.736;9.176;2022-09-27T02:03:18;2.50;;;1.40;;
8881;SDS011;4477;48.736;9.176;2022-09-27T02:05:49;1.60;;;1.50;;
8881;SDS011;4477;48.736;9.176;2022-09-27T02:08:22;1.27;;;1.10;;
8881;SDS011;4477;48.736;9.176;2022-09-27T02:10:54;1.37;;;1.27;;
8881;SDS011;4477;48.736;9.176;2022-09-27T02:13:26;2.97;;;1.63;;
8881;SDS011;4477;48.736;9.176;2022-09-27T02:18:40;2.60;;;1.30;;
8881;SDS011;4477;48.736;9.176;2022-09-27T02:21:17;3.97;;;1.43;;
8881;SDS011;4477;48.736;9.176;2022-09-27T02:23:49;1.97;;;1.20;;
8881;SDS011;4477;48.736;9.176;2022-09-27T02:26:21;1.50;;;1.30;;
8881;SDS011;4477;48.736;9.176;2022-09-27T02:28:55;2.57;;;1.40;;
8881;SDS011;4477;48.736;9.176;2022-09-27T02:31:26;1.40;;;1.30;;
8881;SDS011;4477;48.736;9.176;2022-09-27T02:33:55;1.30;;;1.20;;
8881;SDS011;4477;48.736;9.176;2022-09-27T02:36:26;1.30;;;1.20;;
8881;SDS011;4477;48.736;9.176;2022-09-27T02:38:53;3.17;;;1.70;;
8881;SDS011;4477;48.736;9.176;2022-09-27T02:41:21;1.37;;;1.10;;
8881;SDS011;4477;48.736;9.176;2022-09-27T02:43:49;2.60;;;1.17;;
8881;SDS011;4477;48.736;9.176;2022-09-27T02:46:28;2.47;;;0.90;;
8881;SDS011;4477;48.736;9.176;2022-09-27T02:49:13;1.50;;;0.97;;
8881;SDS011;4477;48.736;9.176;2022-09-27T02:51:53;2.10;;;1.10;;
8881;SDS011;4477;48.736;9.176;2022-09-27T02:54:28;1.70;;;0.87;;
8881;SDS011;4477;48.736;9.176;2022-09-27T02:57:10;2.15;;;1.05;;
8881;SDS011;4477;48.736;9.176;2022-09-27T02:59:49;1.47;;;0.70;;
8881;SDS011;4477;48.736;9.176;2022-09-27T03:02:31;3.77;;;0.90;;
8881;SDS011;4477;48.736;9.176;2022-09-27T03:05:03;0.93;;;0.60;;
8881;SDS011;4477;48.736;9.176;2022-09-27T03:07:33;2.03;;;1.10;;
8881;SDS011;4477;48.736;9.176;2022-09-27T03:10:03;1.57;;;0.60;;
8881;SDS011;4477;48.736;9.176;2022-09-27T03:12:30;1.23;;;0.73;;
8881;SDS011;4477;48.736;9.176;2022-09-27T03:14:59;2.53;;;0.80;;
8881;SDS011;4477;48.736;9.176;2022-09-27T03:17:25;0.73;;;0.70;;
8881;SDS011;4477;48.736;9.176;2022-09-27T03:19:53;1.37;;;1.00;;
8881;SDS011;4477;48.736;9.176;2022-09-27T03:22:21;1.97;;;0.90;;
8881;SDS011;4477;48.736;9.176;2022-09-27T03:24:48;1.90;;;0.77;;
8881;SDS011;4477;48.736;9.176;2022-09-27T03:27:15;1.83;;;0.80;;
8881;SDS011;4477;48.736;9.176;2022-09-27T03:29:42;3.57;;;1.20;;
8881;SDS011;4477;48.736;9.176;2022-09-27T03:32:09;2.40;;;0.93;;
8881;SDS011;4477;48.736;9.176;2022-09-27T03:34:36;3.70;;;1.00;;
8881;SDS011;4477;48.736;9.176;2022-09-27T03:37:03;2.13;;;1.43;;
8881;SDS011;4477;48.736;9.176;2022-09-27T03:39:31;2.07;;;1.63;;
8881;SDS011;4477;48.736;9.176;2022-09-27T03:41:58;2.60;;;1.73;;
8881;SDS011;4477;48.736;9.176;2022-09-27T03:44:25;5.67;;;2.30;;
8881;SDS011;4477;48.736;9.176;2022-09-27T03:46:52;3.40;;;2.03;;
8881;SDS011;4477;48.736;9.176;2022-09-27T03:49:19;3.90;;;2.10;;
8881;SDS011;4477;48.736;9.176;2022-09-27T03:51:45;3.77;;;2.20;;
8881;SDS011;4477;48.736;9.176;2022-09-27T03:54:12;5.17;;;2.20;;
8881;SDS011;4477;48.736;9.176;2022-09-27T03:56:41;5.10;;;2.33;;
8881;SDS011;4477;48.736;9.176;2022-09-27T03:59:08;7.37;;;2.60;;
8881;SDS011;4477;48.736;9.176;2022-09-27T04:01:35;5.70;;;2.20;;
8881;SDS011;4477;48.736;9.176;2022-09-27T04:04:03;4.33;;;1.77;;
8881;SDS011;4477;48.736;9.176;2022-09-27T04:06:30;4.17;;;2.27;;
8881;SDS011;4477;48.736;9.176;2022-09-27T04:08:59;5.93;;;2.40;;
8881;SDS011;4477;48.736;9.176;2022-09-27T04:11:26;4.60;;;2.27;;
8881;SDS011;4477;48.736;9.176;2022-09-27T04:13:54;3.90;;;2.40;;
8881;SDS011;4477;48.736;9.176;2022-09-27T04:16:21;3.50;;;2.50;;
8881;SDS011;4477;48.736;9.176;2022-09-27T04:18:49;6.03;;;2.80;;
8881;SDS011;4477;48.736;9.176;2022-09-27T04:21:17;5.00;;;2.50;;
8881;SDS011;4477;48.736;9.176;2022-09-27T04:23:45;4.20;;;2.60;;
8881;SDS011;4477;48.736;9.176;2022-09-27T04:26:12;7.57;;;2.73;;
8881;SDS011;4477;48.736;9.176;2022-09-27T04:28:43;6.43;;;2.73;;
8881;SDS011;4477;48.736;9.176;2022-09-27T04:31:12;8.67;;;3.40;;
8881;SDS011;4477;48.736;9.176;2022-09-27T04:33:38;6.93;;;3.47;;
8881;SDS011;4477;48.736;9.176;2022-09-27T04:36:06;7.07;;;3.10;;
8881;SDS011;4477;48.736;9.176;2022-09-27T04:38:50;8.87;;;3.70;;
8881;SDS011;4477;48.736;9.176;2022-09-27T04:41:17;6.67;;;2.83;;
8881;SDS011;4477;48.736;9.176;2022-09-27T04:43:46;7.87;;;3.33;;
8881;SDS011;4477;48.736;9.176;2022-09-27T04:46:15;5.90;;;3.50;;
8881;SDS011;4477;48.736;9.176;2022-09-27T04:48:42;6.13;;;3.50;;
8881;SDS011;4477;48.736;9.176;2022-09-27T04:51:09;8.97;;;3.53;;
8881;SDS011;4477;48.736;9.176;2022-09-27T04:53:37;5.80;;;3.63;;
8881;SDS011;4477;48.736;9.176;2022-09-27T04:56:04;6.17;;;3.37;;
8881;SDS011;4477;48.736;9.176;2022-09-27T04:58:32;4.33;;;3.27;;
8881;SDS011;4477;48.736;9.176;2022-09-27T05:01:00;7.00;;;3.67;;
8881;SDS011;4477;48.736;9.176;2022-09-27T05:03:30;6.77;;;3.33;;
8881;SDS011;4477;48.736;9.176;2022-09-27T05:05:57;6.33;;;3.00;;
8881;SDS011;4477;48.736;9.176;2022-09-27T05:08:26;7.13;;;3.10;;
8881;SDS011;4477;48.736;9.176;2022-09-27T05:10:53;8.07;;;3.40;;
8881;SDS011;4477;48.736;9.176;2022-09-27T05:13:20;8.10;;;3.30;;
8881;SDS011;4477;48.736;9.176;2022-09-27T05:15:49;5.77;;;3.10;;
8881;SDS011;4477;48.736;9.176;2022-09-27T05:18:16;7.43;;;3.00;;
8881;SDS011;4477;48.736;9.176;2022-09-27T05:20:45;4.63;;;2.50;;
8881;SDS011;4477;48.736;9.176;2022-09-27T05:23:12;6.50;;;2.70;;
8881;SDS011;4477;48.736;9.176;2022-09-27T05:25:39;4.47;;;2.53;;
8881;SDS011;4477;48.736;9.176;2022-09-27T05:28:07;4.50;;;2.23;;
8881;SDS011;4477;48.736;9.176;2022-09-27T05:30:34;4.93;;;2.40;;
8881;SDS011;4477;48.736;9.176;2022-09-27T05:33:01;4.90;;;2.53;;
8881;SDS011;4477;48.736;9.176;2022-09-27T05:35:30;5.13;;;2.90;;
8881;SDS011;4477;48.736;9.176;2022-09-27T05:37:59;6.07;;;2.40;;
8881;SDS011;4477;48.736;9.176;2022-09-27T05:40:28;4.10;;;2.23;;
8881;SDS011;4477;48.736;9.176;2022-09-27T05:42:55;4.93;;;2.10;;
8881;SDS011;4477;48.736;9.176;2022-09-27T05:45:23;4.13;;;2.30;;
8881;SDS011;4477;48.736;9.176;2022-09-27T05:47:54;3.53;;;2.30;;
8881;SDS011;4477;48.736;9.176;2022-09-27T05:50:22;4.47;;;2.50;;
8881;SDS011;4477;48.736;9.176;2022-09-27T05:52:50;7.07;;;2.30;;
8881;SDS011;4477;48.736;9.176;2022-09-27T05:55:19;2.60;;;2.17;;
8881;SDS011;4477;48.736;9.176;2022-09-27T05:57:53;3.67;;;2.13;;
8881;SDS011;4477;48.736;9.176;2022-09-27T06:00:21;7.50;;;2.40;;
8881;SDS011;4477;48.736;9.176;2022-09-27T06:02:53;4.20;;;2.00;;
8881;SDS011;4477;48.736;9.176;2022-09-27T06:05:21;4.67;;;2.20;;
8881;SDS011;4477;48.736;9.176;2022-09-27T06:07:48;3.53;;;2.27;;
8881;SDS011;4477;48.736;9.176;2022-09-27T06:10:16;5.77;;;2.80;;
8881;SDS011;4477;48.736;9.176;2022-09-27T06:12:45;3.70;;;2.00;;
8881;SDS011;4477;48.736;9.176;2022-09-27T06:15:12;3.77;;;2.20;;
8881;SDS011;4477;48.736;9.176;2022-09-27T06:17:39;5.40;;;2.10;;
8881;SDS011;4477;48.736;9.176;2022-09-27T06:20:08;3.43;;;1.83;;
8881;SDS011;4477;48.736;9.176;2022-09-27T06:22:35;4.10;;;2.17;;
8881;SDS011;4477;48.736;9.176;2022-09-27T06:25:03;4.10;;;1.97;;
8881;SDS011;4477;48.736;9.176;2022-09-27T06:27:30;10.60;;;2.30;;
8881;SDS011;4477;48.736;9.176;2022-09-27T06:29:59;3.50;;;1.97;;
8881;SDS011;4477;48.736;9.176;2022-09-27T06:32:25;3.27;;;2.00;;
8881;SDS011;4477;48.736;9.176;2022-09-27T06:34:52;4.70;;;2.10;;
8881;SDS011;4477;48.736;9.176;2022-09-27T06:37:20;3.47;;;1.40;;
8881;SDS011;4477;48.736;9.176;2022-09-27T06:39:50;3.10;;;1.60;;
8881;SDS011;4477;48.736;9.176;2022-09-27T06:42:17;2.87;;;1.40;;
8881;SDS011;4477;48.736;9.176;2022-09-27T06:44:44;2.00;;;1.43;;
8881;SDS011;4477;48.736;9.176;2022-09-27T06:47:15;3.37;;;1.53;;
8881;SDS011;4477;48.736;9.176;2022-09-27T06:49:42;1.40;;;0.93;;
8881;SDS011;4477;48.736;9.176;2022-09-27T06:52:13;1.83;;;1.30;;
8881;SDS011;4477;48.736;9.176;2022-09-27T06:54:42;1.70;;;1.20;;
8881;SDS011;4477;48.736;9.176;2022-09-27T06:57:09;1.60;;;1.20;;
8881;SDS011;4477;48.736;9.176;2022-09-27T06:59:57;1.63;;;1.20;;
8881;SDS011;4477;48.736;9.176;2022-09-27T07:02:42;1.20;;;1.00;;
8881;SDS011;4477;48.736;9.176;2022-09-27T07:05:11;2.03;;;0.80;;
8881;SDS011;4477;48.736;9.176;2022-09-27T07:07:38;1.13;;;0.90;;
8881;SDS011;4477;48.736;9.176;2022-09-27T07:10:06;2.03;;;0.80;;
8881;SDS011;4477;48.736;9.176;2022-09-27T07:12:34;1.90;;;1.00;;
8881;SDS011;4477;48.736;9.176;2022-09-27T07:15:01;2.00;;;0.70;;
8881;SDS011;4477;48.736;9.176;2022-09-27T07:17:29;0.57;;;0.57;;
8881;SDS011;4477;48.736;9.176;2022-09-27T07:19:57;1.60;;;0.60;;
8881;SDS011;4477;48.736;9.176;2022-09-27T07:22:24;2.10;;;0.67;;
8881;SDS011;4477;48.736;9.176;2022-09-27T07:24:51;2.90;;;0.50;;
8881;SDS011;4477;48.736;9.176;2022-09-27T07:27:18;0.83;;;0.60;;
8881;SDS011;4477;48.736;9.176;2022-09-27T07:29:46;0.50;;;0.50;;
8881;SDS011;4477;48.736;9.176;2022-09-27T07:32:13;1.17;;;0.60;;
8881;SDS011;4477;48.736;9.176;2022-09-27T07:34:40;2.00;;;0.50;;
8881;SDS011;4477;48.736;9.176;2022-09-27T07:37:09;0.53;;;0.53;;
8881;SDS011;4477;48.736;9.176;2022-09-27T07:39:36;1.00;;;0.60;;
8881;SDS011;4477;48.736;9.176;2022-09-27T07:42:03;0.90;;;0.60;;
8881;SDS011;4477;48.736;9.176;2022-09-27T07:44:31;1.40;;;0.70;;
8881;SDS011;4477;48.736;9.176;2022-09-27T07:46:58;1.57;;;0.50;;
8881;SDS011;4477;48.736;9.176;2022-09-27T07:49:25;0.90;;;0.50;;
8881;SDS011;4477;48.736;9.176;2022-09-27T07:51:52;1.10;;;0.50;;
8881;SDS011;4477;48.736;9.176;2022-09-27T07:54:21;1.93;;;0.60;;
8881;SDS011;4477;48.736;9.176;2022-09-27T07:56:48;0.87;;;0.70;;
8881;SDS011;4477;48.736;9.176;2022-09-27T07:59:15;1.17;;;0.70;;
8881;SDS011;4477;48.736;9.176;2022-09-27T08:01:42;1.13;;;0.50;;
8881;SDS011;4477;48.736;9.176;2022-09-27T08:04:10;1.57;;;0.57;;
8881;SDS011;4477;48.736;9.176;2022-09-27T08:06:37;2.40;;;0.70;;
8881;SDS011;4477;48.736;9.176;2022-09-27T08:09:04;1.37;;;0.70;;
8881;SDS011;4477;48.736;9.176;2022-09-27T08:11:35;0.60;;;0.60;;
8881;SDS011;4477;48.736;9.176;2022-09-27T08:14:02;1.20;;;0.60;;
8881;SDS011;4477;48.736;9.176;2022-09-27T08:16:29;2.77;;;0.57;;
8881;SDS011;4477;48.736;9.176;2022-09-27T08:18:58;0.60;;;0.60;;
8881;SDS011;4477;48.736;9.176;2022-09-27T08:21:25;0.90;;;0.50;;
8881;SDS011;4477;48.736;9.176;2022-09-27T08:23:52;0.70;;;0.60;;
8881;SDS011;4477;48.736;9.176;2022-09-27T08:26:19;0.57;;;0.50;;
8881;SDS011;4477;48.736;9.176;2022-09-27T08:28:47;0.53;;;0.50;;
8881;SDS011;4477;48.736;9.176;2022-09-27T08:31:14;3.30;;;0.60;;
8881;SDS011;4477;48.736;9.176;2022-09-27T08:33:41;0.90;;;0.50;;
8881;SDS011;4477;48.736;9.176;2022-09-27T08:36:11;1.47;;;0.50;;
8881;SDS011;4477;48.736;9.176;2022-09-27T08:38:38;0.40;;;0.40;;
8881;SDS011;4477;48.736;9.176;2022-09-27T08:41:06;2.33;;;0.53;;
8881;SDS011;4477;48.736;9.176;2022-09-27T08:43:38;1.40;;;0.60;;
8881;SDS011;4477;48.736;9.176;2022-09-27T08:46:17;1.10;;;0.57;;
8881;SDS011;4477;48.736;9.176;2022-09-27T08:48:53;1.03;;;0.60;;
8881;SDS011;4477;48.736;9.176;2022-09-27T08:51:26;0.80;;;0.70;;
8881;SDS011;4477;48.736;9.176;2022-09-27T08:53:56;2.10;;;0.40;;
8881;SDS011;4477;48.736;9.176;2022-09-27T08:56:30;0.60;;;0.57;;
8881;SDS011;4477;48.736;9.176;2022-09-27T08:59:00;1.23;;;0.57;;
8881;SDS011;4477;48.736;9.176;2022-09-27T09:01:37;0.80;;;0.50;;
8881;SDS011;4477;48.736;9.176;2022-09-27T09:04:05;1.00;;;0.50;;
8881;SDS011;4477;48.736;9.176;2022-09-27T09:06:35;0.63;;;0.53;;
8881;SDS011;4477;48.736;9.176;2022-09-27T09:09:09;0.97;;;0.60;;
8881;SDS011;4477;48.736;9.176;2022-09-27T09:11:53;2.57;;;0.60;;
8881;SDS011;4477;48.736;9.176;2022-09-27T09:14:51;1.73;;;0.60;;
8881;SDS011;4477;48.736;9.176;2022-09-27T09:17:43;0.90;;;0.60;;
8881;SDS011;4477;48.736;9.176;2022-09-27T09:20:21;1.77;;;1.03;;
8881;SDS011;4477;48.736;9.176;2022-09-27T09:23:00;1.70;;;0.50;;
8881;SDS011;4477;48.736;9.176;2022-09-27T09:25:50;2.33;;;0.87;;
8881;SDS011;4477;48.736;9.176;2022-09-27T09:28:27;0.40;;;0.40;;
8881;SDS011;4477;48.736;9.176;2022-09-27T09:31:00;0.77;;;0.50;;
8881;SDS011;4477;48.736;9.176;2022-09-27T09:33:35;0.93;;;0.60;;
8881;SDS011;4477;48.736;9.176;2022-09-27T09:36:09;0.70;;;0.60;;
8881;SDS011;4477;48.736;9.176;2022-09-27T09:38:44;1.70;;;0.70;;
8881;SDS011;4477;48.736;9.176;2022-09-27T09:41:17;1.23;;;0.53;;
8881;SDS011;4477;48.736;9.176;2022-09-27T09:43:51;0.90;;;0.60;;
8881;SDS011;4477;48.736;9.176;2022-09-27T09:46:24;1.77;;;0.63;;
8881;SDS011;4477;48.736;9.176;2022-09-27T09:48:58;3.03;;;0.80;;
8881;SDS011;4477;48.736;9.176;2022-09-27T09:51:33;2.43;;;1.00;;
8881;SDS011;4477;48.736;9.176;2022-09-27T09:54:04;3.70;;;0.90;;
8881;SDS011;4477;48.736;9.176;2022-09-27T09:56:35;1.07;;;0.90;;
8881;SDS011;4477;48.736;9.176;2022-09-27T09:59:08;1.37;;;0.80;;
8881;SDS011;4477;48.736;9.176;2022-09-27T10:01:39;1.57;;;1.00;;
8881;SDS011;4477;48.736;9.176;2022-09-27T10:04:10;1.27;;;1.10;;
8881;SDS011;4477;48.736;9.176;2022-09-27T10:06:44;1.67;;;1.00;;
8881;SDS011;4477;48.736;9.176;2022-09-27T10:09:11;1.33;;;1.23;;
8881;SDS011;4477;48.736;9.176;2022-09-27T10:11:40;2.07;;;1.07;;
8881;SDS011;4477;48.736;9.176;2022-09-27T10:14:09;3.30;;;1.10;;
8881;SDS011;4477;48.736;9.176;2022-09-27T10:16:38;4.67;;;1.10;;
8881;SDS011;4477;48.736;9.176;2022-09-27T10:19:07;2.33;;;1.00;;
8881;SDS011;4477;48.736;9.176;2022-09-27T10:21:39;2.27;;;1.43;;
8881;SDS011;4477;48.736;9.176;2022-09-27T10:24:10;1.67;;;1.00;;
8881;SDS011;4477;48.736;9.176;2022-09-27T10:26:38;3.17;;;1.10;;
8881;SDS011;4477;48.736;9.176;2022-09-27T10:29:15;1.80;;;1.03;;
8881;SDS011;4477;48.736;9.176;2022-09-27T10:31:47;1.80;;;1.20;;
8881;SDS011;4477;48.736;9.176;2022-09-27T10:34:19;4.00;;;1.50;;
8881;SDS011;4477;48.736;9.176;2022-09-27T10:37:03;2.37;;;1.10;;
8881;SDS011;4477;48.736;9.176;2022-09-27T10:39:44;3.23;;;1.17;;
8881;SDS011;4477;48.736;9.176;2022-09-27T10:42:19;2.67;;;1.10;;
8881;SDS011;4477;48.736;9.176;2022-09-27T10:44:47;4.40;;;3.40;;
8881;SDS011;4477;48.736;9.176;2022-09-27T10:47:16;3.87;;;1.30;;
8881;SDS011;4477;48.736;9.176;2022-09-27T10:49:48;1.93;;;0.90;;
8881;SDS011;4477;48.736;9.176;2022-09-27T10:52:18;2.67;;;1.00;;
8881;SDS011;4477;48.736;9.176;2022-09-27T10:54:52;2.67;;;1.00;;
8881;SDS011;4477;48.736;9.176;2022-09-27T10:57:20;4.77;;;1.20;;
8881;SDS011;4477;48.736;9.176;2022-09-27T10:59:50;4.50;;;1.07;;
8881;SDS011;4477;48.736;9.176;2022-09-27T11:02:19;3.77;;;1.20;;
8881;SDS011;4477;48.736;9.176;2022-09-27T11:05:03;3.23;;;1.20;;
8881;SDS011;4477;48.736;9.176;2022-09-27T11:07:35;2.47;;;1.23;;
8881;SDS011;4477;48.736;9.176;2022-09-27T11:10:18;5.57;;;1.27;;
8881;SDS011;4477;48.736;9.176;2022-09-27T11:13:04;3.77;;;1.10;;
8881;SDS011;4477;48.736;9.176;2022-09-27T11:15:51;2.47;;;1.20;;
8881;SDS011;4477;48.736;9.176;2022-09-27T11:18:31;1.60;;;1.00;;
8881;SDS011;4477;48.736;9.176;2022-09-27T11:21:11;1.30;;;0.90;;
8881;SDS011;4477;48.736;9.176;2022-09-27T11:23:52;2.37;;;0.90;;
8881;SDS011;4477;48.736;9.176;2022-09-27T11:26:43;2.70;;;0.63;;
8881;SDS011;4477;48.736;9.176;2022-09-27T11:29:22;3.67;;;0.80;;
8881;SDS011;4477;48.736;9.176;2022-09-27T11:32:05;2.20;;;1.00;;
8881;SDS011;4477;48.736;9.176;2022-09-27T11:34:42;4.57;;;1.00;;
8881;SDS011;4477;48.736;9.176;2022-09-27T11:37:23;1.97;;;0.70;;
8881;SDS011;4477;48.736;9.176;2022-09-27T11:40:02;1.00;;;0.77;;
8881;SDS011;4477;48.736;9.176;2022-09-27T11:42:45;1.93;;;0.83;;
8881;SDS011;4477;48.736;9.176;2022-09-27T11:45:27;2.00;;;0.80;;
8881;SDS011;4477;48.736;9.176;2022-09-27T11:48:07;5.33;;;0.80;;
8881;SDS011;4477;48.736;9.176;2022-09-27T11:50:54;1.33;;;0.70;;
8881;SDS011;4477;48.736;9.176;2022-09-27T11:53:30;1.60;;;0.80;;
8881;SDS011;4477;48.736;9.176;2022-09-27T11:56:13;2.17;;;0.70;;
8881;SDS011;4477;48.736;9.176;2022-09-27T11:58:57;4.50;;;0.70;;
8881;SDS011;4477;48.736;9.176;2022-09-27T12:01:40;2.03;;;0.80;;
8881;SDS011;4477;48.736;9.176;2022-09-27T12:04:18;1.37;;;0.80;;
8881;SDS011;4477;48.736;9.176;2022-09-27T12:07:05;1.10;;;0.60;;
8881;SDS011;4477;48.736;9.176;2022-09-27T12:09:38;2.03;;;0.80;;
8881;SDS011;4477;48.736;9.176;2022-09-27T12:12:11;1.07;;;0.90;;
8881;SDS011;4477;48.736;9.176;2022-09-27T12:14:41;2.00;;;0.80;;
8881;SDS011;4477;48.736;9.176;2022-09-27T12:17:13;2.63;;;0.80;;
8881;SDS011;4477;48.736;9.176;2022-09-27T12:19:43;1.70;;;0.90;;
8881;SDS011;4477;48.736;9.176;2022-09-27T12:22:15;1.43;;;0.83;;
8881;SDS011;4477;48.736;9.176;2022-09-27T12:24:46;1.17;;;0.70;;
8881;SDS011;4477;48.736;9.176;2022-09-27T12:27:15;2.20;;;0.70;;
8881;SDS011;4477;48.736;9.176;2022-09-27T12:29:47;0.77;;;0.70;;
8881;SDS011;4477;48.736;9.176;2022-09-27T12:32:21;2.30;;;0.80;;
8881;SDS011;4477;48.736;9.176;2022-09-27T12:34:51;1.77;;;0.80;;
8881;SDS011;4477;48.736;9.176;2022-09-27T12:37:25;1.60;;;0.60;;
8881;SDS011;4477;48.736;9.176;2022-09-27T12:39:57;1.50;;;0.70;;
8881;SDS011;4477;48.736;9.176;2022-09-27T12:42:30;2.30;;;0.60;;
8881;SDS011;4477;48.736;9.176;2022-09-27T12:45:02;0.90;;;0.50;;
8881;SDS011;4477;48.736;9.176;2022-09-27T12:47:42;1.07;;;0.60;;
8881;SDS011;4477;48.736;9.176;2022-09-27T12:50:22;0.73;;;0.60;;
8881;SDS011;4477;48.736;9.176;2022-09-27T12:52:56;1.53;;;0.70;;
8881;SDS011;4477;48.736;9.176;2022-09-27T13:01:39;1.10;;;0.80;;
8881;SDS011;4477;48.736;9.176;2022-09-27T13:04:31;2.30;;;0.70;;
8881;SDS011;4477;48.736;9.176;2022-09-27T13:07:22;1.20;;;0.60;;
8881;SDS011;4477;48.736;9.176;2022-09-27T13:12:56;1.37;;;0.80;;
8881;SDS011;4477;48.736;9.176;2022-09-27T13:15:27;0.80;;;0.70;;
8881;SDS011;4477;48.736;9.176;2022-09-27T13:17:56;1.03;;;0.70;;
8881;SDS011;4477;48.736;9.176;2022-09-27T13:26:44;1.47;;;0.60;;
8881;SDS011;4477;48.736;9.176;2022-09-27T13:34:57;1.03;;;0.70;;
8881;SDS011;4477;48.736;9.176;2022-09-27T13:37:47;7.70;;;5.07;;
8881;SDS011;4477;48.736;9.176;2022-09-27T13:40:20;2.57;;;1.20;;
8881;SDS011;4477;48.736;9.176;2022-09-27T13:42:54;1.40;;;0.60;;
8881;SDS011;4477;48.736;9.176;2022-09-27T13:45:40;0.77;;;0.77;;
8881;SDS011;4477;48.736;9.176;2022-09-27T13:48:17;2.83;;;0.90;;
8881;SDS011;4477;48.736;9.176;2022-09-27T13:50:50;1.57;;;0.60;;
8881;SDS011;4477;48.736;9.176;2022-09-27T13:53:23;1.20;;;0.60;;
8881;SDS011;4477;48.736;9.176;2022-09-27T13:55:54;0.60;;;0.60;;
8881;SDS011;4477;48.736;9.176;2022-09-27T14:01:16;0.50;;;0.50;;
8881;SDS011;4477;48.736;9.176;2022-09-27T14:03:54;0.40;;;0.40;;
8881;SDS011;4477;48.736;9.176;2022-09-27T14:06:25;1.03;;;0.60;;
8881;SDS011;4477;48.736;9.176;2022-09-27T14:08:56;0.70;;;0.60;;
8881;SDS011;4477;48.736;9.176;2022-09-27T14:11:27;4.27;;;3.90;;
8881;SDS011;4477;48.736;9.176;2022-09-27T14:13:57;2.20;;;1.87;;
8881;SDS011;4477;48.736;9.176;2022-09-27T14:16:26;1.03;;;0.70;;
8881;SDS011;4477;48.736;9.176;2022-09-27T14:18:59;1.23;;;0.80;;
8881;SDS011;4477;48.736;9.176;2022-09-27T14:21:28;1.10;;;1.00;;
8881;SDS011;4477;48.736;9.176;2022-09-27T14:27:10;5.37;;;1.03;;
8881;SDS011;4477;48.736;9.176;2022-09-27T14:29:42;1.77;;;1.10;;
8881;SDS011;4477;48.736;9.176;2022-09-27T14:32:12;1.60;;;1.23;;
8881;SDS011;4477;48.736;9.176;2022-09-27T14:34:41;1.50;;;1.10;;
8881;SDS011;4477;48.736;9.176;2022-09-27T14:37:20;1.63;;;1.07;;
8881;SDS011;4477;48.736;9.176;2022-09-27T14:39:53;1.87;;;0.90;;
8881;SDS011;4477;48.736;9.176;2022-09-27T14:42:24;1.80;;;1.03;;
8881;SDS011;4477;48.736;9.176;2022-09-27T14:44:54;3.33;;;1.10;;
8881;SDS011;4477;48.736;9.176;2022-09-27T14:47:25;2.87;;;1.00;;
8881;SDS011;4477;48.736;9.176;2022-09-27T14:49:56;2.53;;;0.90;;
8881;SDS011;4477;48.736;9.176;2022-09-27T14:52:25;2.20;;;0.90;;
8881;SDS011;4477;48.736;9.176;2022-09-27T14:54:56;2.40;;;0.90;;
8881;SDS011;4477;48.736;9.176;2022-09-27T14:57:24;2.87;;;0.97;;
8881;SDS011;4477;48.736;9.176;2022-09-27T14:59:54;1.07;;;0.80;;
8881;SDS011;4477;48.736;9.176;2022-09-27T15:02:28;1.30;;;0.73;;
8881;SDS011;4477;48.736;9.176;2022-09-27T15:04:58;1.10;;;0.70;;
8881;SDS011;4477;48.736;9.176;2022-09-27T15:07:27;0.70;;;0.60;;
8881;SDS011;4477;48.736;9.176;2022-09-27T15:09:56;1.03;;;0.87;;
8881;SDS011;4477;48.736;9.176;2022-09-27T15:12:24;1.40;;;0.70;;
8881;SDS011;4477;48.736;9.176;2022-09-27T15:14:52;0.40;;;0.37;;
8881;SDS011;4477;48.736;9.176;2022-09-27T15:17:22;1.43;;;0.50;;
8881;SDS011;4477;48.736;9.176;2022-09-27T15:20:01;0.57;;;0.50;;
8881;SDS011;4477;48.736;9.176;2022-09-27T15:22:43;1.53;;;0.60;;
8881;SDS011;4477;48.736;9.176;2022-09-27T15:25:14;0.90;;;0.53;;
8881;SDS011;4477;48.736;9.176;2022-09-27T15:27:48;0.90;;;0.70;;
8881;SDS011;4477;48.736;9.176;2022-09-27T15:30:18;0.43;;;0.33;;
8881;SDS011;4477;48.736;9.176;2022-09-27T15:32:51;0.80;;;0.57;;
8881;SDS011;4477;48.736;9.176;2022-09-27T15:35:23;0.83;;;0.50;;
8881;SDS011;4477;48.736;9.176;2022-09-27T15:38:10;0.57;;;0.40;;
8881;SDS011;4477;48.736;9.176;2022-09-27T15:43:41;1.67;;;0.70;;
8881;SDS011;4477;48.736;9.176;2022-09-27T15:52:00;1.90;;;0.70;;
8881;SDS011;4477;48.736;9.176;2022-09-27T15:54:29;1.00;;;0.60;;
8881;SDS011;4477;48.736;9.176;2022-09-27T15:57:00;2.93;;;1.30;;
8881;SDS011;4477;48.736;9.176;2022-09-27T15:59:32;1.03;;;0.70;;
8881;SDS011;4477;48.736;9.176;2022-09-27T16:02:01;1.17;;;0.73;;
8881;SDS011;4477;48.736;9.176;2022-09-27T16:04:30;1.17;;;0.73;;
8881;SDS011;4477;48.736;9.176;2022-09-27T16:06:57;1.90;;;1.10;;
8881;SDS011;4477;48.736;9.176;2022-09-27T16:09:27;1.83;;;0.83;;
8881;SDS011;4477;48.736;9.176;2022-09-27T16:11:54;2.10;;;1.00;;
8881;SDS011;4477;48.736;9.176;2022-09-27T16:14:21;2.17;;;0.63;;
8881;SDS011;4477;48.736;9.176;2022-09-27T16:16:48;1.20;;;0.60;;
8881;SDS011;4477;48.736;9.176;2022-09-27T16:19:17;2.83;;;0.80;;
8881;SDS011;4477;48.736;9.176;2022-09-27T16:21:44;1.50;;;1.30;;
8881;SDS011;4477;48.736;9.176;2022-09-27T16:24:14;3.43;;;1.63;;